Terminal Aerodrome Forecast
Issued by NWS

Home | Current Version | Previous Version | Text Only | Print | Product List | Glossary On
Versions: 1 2 3 4 5 6 7 8 9 10 11 12 13 14 15 16 17 18 19 20 21 22
000
FTUS43 KILX 270100 AAA
TAFCMI
TAF AMD
KCMI 270123Z 2701/2724 19007KT 2SM -FZDZ BR OVC004
     FM270500 22006KT 3SM BR OVC007
     FM270900 33008G14KT 4SM BR OVC007
     FM271500 36008G15KT 6SM BR OVC008
     FM272100 02006KT P6SM BKN012=

USA.gov is the U.S. government's official web portal to all federal, state and local government web resources and services.